Time;durP1;ratioP1;P1;durP2;ratioP2;P2;SDS_P1;SDS_P2;PMS_P1;PMS_P2;Temp;Humidity;BMP_temperature;BMP_pressure;BME280_temperature;BME280_humidity;BME280_pressure;Samples;Min_cycle;Max_cycle;Signal;HPM_P1;HPM_P2
2022/02/26 00:01:42;;;;;;;37.13;8.07;;;3.20;99.90;;;;;;5011130;28;25072;-75
2022/02/26 00:04:08;;;;;;;33.92;7.90;;;3.20;99.90;;;;;;5002823;28;25068;-74
2022/02/26 00:06:33;;;;;;;29.67;7.20;;;3.10;99.90;;;;;;4996466;28;25066;-76
2022/02/26 00:08:59;;;;;;;32.00;8.15;;;3.10;99.90;;;;;;5002493;28;25070;-74
2022/02/26 00:11:25;;;;;;;28.90;7.05;;;3.10;99.90;;;;;;4996770;28;25132;-74
2022/02/26 00:13:50;;;;;;;35.30;8.65;;;2.90;99.90;;;;;;4980257;28;25057;-73
2022/02/26 00:16:16;;;;;;;26.35;7.97;;;2.80;99.90;;;;;;4998841;28;25136;-75
2022/02/26 00:18:41;;;;;;;30.83;6.82;;;2.80;99.90;;;;;;4999031;28;25174;-73
2022/02/26 00:21:07;;;;;;;30.55;7.03;;;2.90;99.90;;;;;;4998055;28;25053;-73
2022/02/26 00:23:33;;;;;;;23.92;7.25;;;2.90;99.90;;;;;;4990741;28;25055;-76
2022/02/26 00:25:58;;;;;;;21.73;6.70;;;3.00;99.90;;;;;;5009970;28;25142;-74
2022/02/26 00:28:24;;;;;;;25.42;6.90;;;3.00;99.90;;;;;;5010096;28;25072;-73
2022/02/26 00:30:50;;;;;;;26.85;6.70;;;3.00;99.90;;;;;;5010430;28;25066;-73
2022/02/26 00:33:15;;;;;;;36.00;7.38;;;2.90;99.90;;;;;;5006842;28;25082;-74
2022/02/26 00:35:41;;;;;;;36.15;9.18;;;2.70;99.90;;;;;;4988438;28;25072;-74
2022/02/26 00:38:07;;;;;;;45.35;7.78;;;2.70;99.90;;;;;;5009499;28;25108;-75
2022/02/26 00:40:33;;;;;;;31.60;7.60;;;2.70;99.90;;;;;;5009199;28;25181;-73
2022/02/26 00:42:58;;;;;;;25.65;6.68;;;2.60;99.90;;;;;;5009380;28;25065;-74
2022/02/26 00:45:24;;;;;;;30.25;7.53;;;2.70;99.90;;;;;;5009241;28;25091;-76
2022/02/26 00:47:50;;;;;;;31.77;6.97;;;2.60;99.90;;;;;;5009355;28;25096;-74
2022/02/26 00:50:16;;;;;;;34.17;7.53;;;2.60;99.90;;;;;;5008583;28;25105;-73
2022/02/26 00:52:42;;;;;;;31.25;8.30;;;2.60;99.90;;;;;;5009733;28;25089;-74
2022/02/26 00:55:09;;;;;;;33.83;7.45;;;2.60;99.90;;;;;;4991696;28;25087;-74
2022/02/26 00:57:35;;;;;;;26.05;6.82;;;2.60;99.90;;;;;;5008949;28;25074;-75
2022/02/26 01:00:07;;;;;;;27.10;6.93;;;2.60;99.90;;;;;;5009295;28;25048;-73
2022/02/26 01:02:32;;;;;;;31.38;7.65;;;2.60;99.90;;;;;;5006430;28;25070;-73
2022/02/26 01:04:58;;;;;;;35.25;6.93;;;2.40;99.90;;;;;;4998915;28;25072;-73
2022/02/26 01:07:23;;;;;;;28.05;6.88;;;2.30;99.90;;;;;;5008680;28;25134;-72
2022/02/26 01:09:49;;;;;;;24.17;7.47;;;2.30;99.90;;;;;;4991950;28;25070;-75
2022/02/26 01:12:15;;;;;;;28.63;7.95;;;2.40;99.90;;;;;;4990954;28;25066;-74
2022/02/26 01:14:40;;;;;;;35.58;7.53;;;2.40;99.90;;;;;;4995741;28;25063;-75
2022/02/26 01:17:08;;;;;;;28.55;7.32;;;2.50;99.90;;;;;;5009616;28;25069;-75
2022/02/26 01:19:35;;;;;;;31.35;6.93;;;2.50;99.90;;;;;;5012215;28;25057;-74
2022/02/26 01:22:01;;;;;;;36.38;8.98;;;2.50;99.90;;;;;;4986760;28;25080;-73
2022/02/26 01:24:26;;;;;;;29.85;6.78;;;2.50;99.90;;;;;;5018732;28;25078;-75
2022/02/26 01:26:52;;;;;;;34.03;7.10;;;2.40;99.90;;;;;;4989760;28;25091;-73
2022/02/26 01:29:18;;;;;;;29.20;7.05;;;2.40;99.90;;;;;;5009588;28;25062;-74
2022/02/26 01:31:43;;;;;;;34.83;7.55;;;2.40;99.90;;;;;;4981350;28;25161;-73
2022/02/26 01:34:09;;;;;;;34.33;7.90;;;2.40;99.90;;;;;;4984008;28;25063;-74
2022/02/26 01:36:36;;;;;;;30.27;7.93;;;2.40;99.90;;;;;;5000076;28;25078;-73
2022/02/26 01:39:05;;;;;;;27.42;6.28;;;2.30;99.90;;;;;;5004547;28;25054;-72
2022/02/26 01:41:31;;;;;;;38.97;8.35;;;2.30;99.90;;;;;;4979456;28;25051;-72
2022/02/26 01:43:57;;;;;;;29.90;6.80;;;2.10;99.90;;;;;;4972930;28;25090;-72
2022/02/26 01:46:22;;;;;;;37.60;8.98;;;2.10;99.90;;;;;;5000426;28;25063;-73
2022/02/26 01:48:48;;;;;;;26.73;7.57;;;2.10;99.90;;;;;;5012277;28;25098;-72
2022/02/26 01:51:14;;;;;;;30.77;8.00;;;2.20;99.90;;;;;;5011907;28;25066;-73
2022/02/26 01:53:40;;;;;;;28.95;7.75;;;2.20;99.90;;;;;;5009725;28;25098;-73
2022/02/26 01:56:07;;;;;;;38.58;9.20;;;2.10;99.90;;;;;;5011384;28;25052;-73
2022/02/26 01:58:33;;;;;;;33.15;7.63;;;2.10;99.90;;;;;;5012083;28;25071;-73
2022/02/26 02:00:59;;;;;;;38.03;8.18;;;2.10;99.90;;;;;;4995640;28;25175;-72
2022/02/26 02:03:24;;;;;;;30.65;8.05;;;2.10;99.90;;;;;;4981233;28;25105;-73
2022/02/26 02:05:50;;;;;;;32.10;7.88;;;2.10;99.90;;;;;;4990083;28;25100;-72
2022/02/26 02:08:16;;;;;;;31.90;7.88;;;2.10;99.90;;;;;;4991475;28;25137;-73
2022/02/26 02:10:43;;;;;;;33.28;7.90;;;2.00;99.90;;;;;;4975910;28;25068;-73
2022/02/26 02:13:09;;;;;;;33.58;8.35;;;1.90;99.90;;;;;;5010977;28;25138;-72
2022/02/26 02:15:39;;;;;;;35.72;9.85;;;2.00;99.90;;;;;;5009652;28;25071;-73
2022/02/26 02:18:07;;;;;;;24.10;7.97;;;2.00;99.90;;;;;;4991660;28;25096;-73
2022/02/26 02:20:34;;;;;;;26.88;8.13;;;2.00;99.90;;;;;;4992447;28;25052;-71
2022/02/26 02:22:59;;;;;;;40.65;9.50;;;2.10;99.90;;;;;;4975127;28;25123;-72
2022/02/26 02:25:28;;;;;;;34.88;8.18;;;2.10;99.90;;;;;;4991767;28;25061;-71
2022/02/26 02:27:55;;;;;;;40.63;8.57;;;2.00;99.90;;;;;;4991371;28;25089;-73
2022/02/26 02:30:22;;;;;;;28.50;7.10;;;1.80;99.90;;;;;;5011022;28;25093;-75
2022/02/26 02:32:47;;;;;;;33.35;8.10;;;1.80;99.90;;;;;;4992609;28;25124;-72
2022/02/26 02:35:26;;;;;;;28.70;7.35;;;1.70;99.90;;;;;;4999949;28;25065;-73
2022/02/26 02:37:52;;;;;;;33.42;7.95;;;1.70;99.90;;;;;;4975837;28;25058;-73
2022/02/26 02:40:18;;;;;;;36.60;7.75;;;1.70;99.90;;;;;;5009321;28;25051;-72
2022/02/26 02:42:44;;;;;;;35.63;8.43;;;1.60;99.90;;;;;;5010948;28;25072;-74
2022/02/26 02:45:10;;;;;;;33.78;8.90;;;1.60;99.90;;;;;;5014082;28;25152;-72
2022/02/26 02:47:35;;;;;;;26.83;6.95;;;1.60;99.90;;;;;;4985049;28;25087;-74
2022/02/26 02:50:01;;;;;;;26.95;7.60;;;1.70;99.90;;;;;;5009225;28;25055;-71
2022/02/26 02:52:26;;;;;;;32.80;7.22;;;1.70;99.90;;;;;;5009998;28;25069;-74
2022/02/26 02:54:52;;;;;;;32.75;9.18;;;1.80;99.90;;;;;;5008770;28;25075;-73
2022/02/26 02:57:18;;;;;;;30.58;7.90;;;1.80;99.90;;;;;;5008339;28;25053;-74
2022/02/26 02:59:44;;;;;;;35.58;9.20;;;1.70;99.90;;;;;;4990670;28;25060;-73
2022/02/26 03:02:09;;;;;;;29.17;8.50;;;1.60;99.90;;;;;;5010080;28;25073;-71
2022/02/26 03:04:35;;;;;;;36.17;9.32;;;1.70;99.90;;;;;;5025399;28;25069;-71
2022/02/26 03:07:01;;;;;;;25.98;7.38;;;1.70;99.90;;;;;;5033408;28;25104;-72
2022/02/26 03:09:27;;;;;;;34.83;10.02;;;1.70;99.90;;;;;;5014249;28;25085;-73
2022/02/26 03:11:53;;;;;;;36.15;8.88;;;1.70;99.90;;;;;;5004538;28;25183;-73
2022/02/26 03:14:18;;;;;;;37.33;8.32;;;1.60;99.90;;;;;;5011616;28;25062;-73
2022/02/26 03:16:44;;;;;;;35.30;9.65;;;1.70;99.90;;;;;;5011497;28;25064;-73
2022/02/26 03:19:09;;;;;;;29.77;9.13;;;1.70;99.90;;;;;;5011858;28;25137;-74
2022/02/26 03:21:35;;;;;;;33.53;9.88;;;1.80;99.90;;;;;;5010107;28;25460;-75
2022/02/26 03:24:01;;;;;;;34.40;9.00;;;1.70;99.90;;;;;;4994001;28;25062;-73
2022/02/26 03:26:26;;;;;;;34.38;9.63;;;1.70;99.90;;;;;;5014972;28;25075;-74
2022/02/26 03:28:52;;;;;;;35.55;10.15;;;1.70;99.90;;;;;;5013625;28;25055;-75
2022/02/26 03:31:18;;;;;;;33.03;8.48;;;1.60;99.90;;;;;;5010874;28;25070;-75
2022/02/26 03:33:43;;;;;;;32.70;10.15;;;1.60;99.90;;;;;;4998046;28;25138;-75
2022/02/26 03:36:09;;;;;;;36.60;10.55;;;1.70;99.90;;;;;;5010156;28;25169;-74
2022/02/26 03:38:35;;;;;;;38.92;10.25;;;1.70;99.90;;;;;;5011250;28;25064;-74
2022/02/26 03:41:01;;;;;;;27.98;11.32;;;1.70;99.90;;;;;;5011320;28;25057;-72
2022/02/26 03:43:26;;;;;;;44.08;12.18;;;1.70;99.90;;;;;;5010916;28;25066;-72
2022/02/26 03:45:52;;;;;;;43.45;12.65;;;1.70;99.90;;;;;;5011856;28;25125;-73
2022/02/26 03:48:17;;;;;;;36.58;11.90;;;1.70;99.90;;;;;;4995852;28;25058;-73
2022/02/26 03:50:43;;;;;;;41.05;12.90;;;1.80;99.90;;;;;;5014023;28;25059;-73
2022/02/26 03:53:09;;;;;;;34.15;11.02;;;1.80;99.90;;;;;;5016605;28;25218;-73
2022/02/26 03:55:35;;;;;;;36.05;10.73;;;1.90;99.90;;;;;;5024155;28;25169;-71
2022/02/26 03:58:00;;;;;;;39.17;10.88;;;1.80;99.90;;;;;;5017414;28;25117;-71
2022/02/26 04:00:26;;;;;;;43.63;11.32;;;1.80;99.90;;;;;;5030342;28;25065;-75
2022/02/26 04:02:52;;;;;;;36.33;11.90;;;1.80;99.90;;;;;;5030220;28;25075;-73
2022/02/26 04:05:17;;;;;;;43.80;13.35;;;1.80;99.90;;;;;;5029322;28;25073;-72
2022/02/26 04:07:43;;;;;;;41.25;14.40;;;1.80;99.90;;;;;;5018742;28;25066;-72
2022/02/26 04:10:10;;;;;;;35.80;14.48;;;1.80;99.90;;;;;;4997551;28;25077;-71
2022/02/26 04:12:36;;;;;;;33.47;12.10;;;1.90;99.90;;;;;;5014771;28;25128;-72
2022/02/26 04:15:02;;;;;;;42.10;13.57;;;2.00;99.90;;;;;;5015682;28;25084;-71
2022/02/26 04:17:27;;;;;;;36.47;12.77;;;2.00;99.90;;;;;;4997336;28;25068;-73
2022/02/26 04:19:53;;;;;;;39.20;13.18;;;2.00;99.90;;;;;;4962780;28;1038900;-74
2022/02/26 04:22:18;;;;;;;35.22;12.75;;;2.00;99.90;;;;;;5015176;28;25087;-73
2022/02/26 04:24:44;;;;;;;34.78;13.38;;;2.00;99.90;;;;;;5014572;28;25161;-73
2022/02/26 04:27:09;;;;;;;48.20;15.45;;;2.00;99.90;;;;;;5013450;28;25138;-74
2022/02/26 04:29:35;;;;;;;45.03;13.80;;;2.00;99.90;;;;;;5016050;28;25100;-72
2022/02/26 04:32:01;;;;;;;39.13;14.57;;;1.90;99.90;;;;;;5017518;28;25092;-74
2022/02/26 04:34:26;;;;;;;33.47;10.93;;;1.90;99.90;;;;;;5012523;28;25159;-72
2022/02/26 04:36:52;;;;;;;51.55;16.33;;;2.00;99.90;;;;;;5012734;28;25144;-73
2022/02/26 04:39:17;;;;;;;34.63;14.75;;;2.00;99.90;;;;;;5013173;28;25080;-72
2022/02/26 04:41:43;;;;;;;49.55;16.23;;;2.00;99.90;;;;;;5010973;28;25112;-72
2022/02/26 04:44:08;;;;;;;39.53;14.07;;;2.00;99.90;;;;;;5010431;28;25082;-71
2022/02/26 04:46:34;;;;;;;39.75;13.85;;;1.90;99.90;;;;;;5011601;28;25061;-74
2022/02/26 04:49:00;;;;;;;31.70;13.20;;;2.00;99.90;;;;;;5011070;28;25069;-70
2022/02/26 04:51:25;;;;;;;48.08;16.50;;;1.90;99.90;;;;;;5013270;28;25053;-74
2022/02/26 04:53:51;;;;;;;31.30;14.18;;;1.80;99.90;;;;;;5011199;28;25102;-72
2022/02/26 04:56:17;;;;;;;39.58;15.20;;;1.80;99.90;;;;;;5008426;28;25064;-72
2022/02/26 04:58:42;;;;;;;36.40;14.23;;;1.80;99.90;;;;;;5009382;28;25092;-72
2022/02/26 05:01:08;;;;;;;32.50;14.23;;;1.70;99.90;;;;;;5010498;28;25149;-72
2022/02/26 05:03:34;;;;;;;30.08;13.98;;;1.50;99.90;;;;;;5011367;28;25057;-74
2022/02/26 05:06:00;;;;;;;41.88;16.88;;;1.40;99.90;;;;;;5010977;28;25206;-73
2022/02/26 05:08:26;;;;;;;43.17;17.13;;;1.40;99.90;;;;;;4996826;28;25155;-75
2022/02/26 05:10:52;;;;;;;42.78;15.75;;;1.40;99.90;;;;;;5003087;28;25058;-71
2022/02/26 05:13:19;;;;;;;39.78;14.95;;;1.40;99.90;;;;;;4993187;28;25143;-72
2022/02/26 05:15:44;;;;;;;44.80;17.92;;;1.40;99.90;;;;;;4994450;28;25062;-72
2022/02/26 05:18:10;;;;;;;52.58;19.38;;;1.50;99.90;;;;;;5014831;28;25062;-75
2022/02/26 05:20:36;;;;;;;46.42;18.35;;;1.60;99.90;;;;;;5009268;28;25051;-74
2022/02/26 05:23:02;;;;;;;46.20;17.08;;;1.50;99.90;;;;;;5035476;28;25070;-72
2022/02/26 05:25:27;;;;;;;45.38;17.63;;;1.50;99.90;;;;;;5024164;28;25063;-76
2022/02/26 05:27:53;;;;;;;52.22;18.77;;;1.50;99.90;;;;;;5018927;28;25054;-76
2022/02/26 05:30:19;;;;;;;43.67;18.48;;;1.50;99.90;;;;;;5028592;28;25067;-76
2022/02/26 05:32:45;;;;;;;42.15;18.00;;;1.50;99.90;;;;;;5012052;28;25099;-74
2022/02/26 05:35:10;;;;;;;45.45;17.33;;;1.50;99.90;;;;;;5006253;28;25069;-73
2022/02/26 05:37:36;;;;;;;40.28;19.70;;;1.60;99.90;;;;;;5005361;28;25059;-72
2022/02/26 05:40:03;;;;;;;42.75;17.40;;;1.60;99.90;;;;;;4998517;28;25070;-70
2022/02/26 05:42:29;;;;;;;48.90;19.25;;;1.60;99.90;;;;;;4998278;28;25057;-74
2022/02/26 05:44:55;;;;;;;54.15;21.88;;;1.60;99.90;;;;;;5007284;28;25145;-74
2022/02/26 05:47:20;;;;;;;74.30;23.73;;;1.50;99.90;;;;;;5001995;28;25058;-71
2022/02/26 05:49:46;;;;;;;69.90;21.50;;;1.50;99.90;;;;;;5021345;28;25103;-73
2022/02/26 05:52:11;;;;;;;128.15;27.60;;;1.50;99.90;;;;;;5018979;28;25078;-73
2022/02/26 05:54:37;;;;;;;93.75;27.42;;;1.50;99.90;;;;;;5003039;28;25058;-74
2022/02/26 05:57:03;;;;;;;62.85;23.75;;;1.50;99.90;;;;;;4999750;28;25062;-73
2022/02/26 05:59:29;;;;;;;87.80;27.35;;;1.50;99.90;;;;;;5001430;28;25050;-72
2022/02/26 06:01:55;;;;;;;74.55;22.88;;;1.40;99.90;;;;;;4992533;28;25154;-74
2022/02/26 06:04:20;;;;;;;77.20;24.73;;;1.50;99.90;;;;;;4996900;28;25070;-73
2022/02/26 06:06:46;;;;;;;65.07;22.75;;;1.40;99.90;;;;;;4993716;28;25163;-73
2022/02/26 06:09:11;;;;;;;101.40;28.63;;;1.40;99.90;;;;;;4998221;28;25138;-73
2022/02/26 06:11:37;;;;;;;71.10;26.80;;;1.40;99.90;;;;;;4999011;28;25132;-72
2022/02/26 06:14:03;;;;;;;54.20;25.13;;;1.40;99.90;;;;;;5000621;28;25130;-72
2022/02/26 06:16:28;;;;;;;40.80;18.48;;;1.40;99.90;;;;;;4999893;28;25070;-73
2022/02/26 06:18:54;;;;;;;58.50;22.48;;;1.40;99.90;;;;;;4998424;28;25049;-73
2022/02/26 06:21:19;;;;;;;54.53;24.60;;;1.50;99.90;;;;;;5001048;28;25098;-72
2022/02/26 06:23:45;;;;;;;56.25;22.92;;;1.40;99.90;;;;;;4999886;28;25105;-72
2022/02/26 06:26:11;;;;;;;52.15;21.33;;;1.40;99.90;;;;;;4996201;28;25156;-73
2022/02/26 06:28:37;;;;;;;41.50;21.10;;;1.40;99.90;;;;;;4997296;28;25082;-73
2022/02/26 06:31:03;;;;;;;48.45;22.00;;;1.40;99.90;;;;;;5000938;28;25053;-73
2022/02/26 06:33:28;;;;;;;52.05;21.48;;;1.50;99.90;;;;;;4994938;28;25054;-74
2022/02/26 06:35:54;;;;;;;51.78;24.60;;;1.40;99.90;;;;;;4996975;28;25076;-73
2022/02/26 06:38:19;;;;;;;42.92;20.75;;;1.40;99.90;;;;;;4996711;28;25053;-76
2022/02/26 06:40:45;;;;;;;69.45;26.65;;;1.50;99.90;;;;;;4988413;28;25112;-75
2022/02/26 06:43:11;;;;;;;57.28;23.50;;;1.60;99.90;;;;;;4993876;28;25105;-75
2022/02/26 06:45:37;;;;;;;53.10;19.65;;;1.70;99.90;;;;;;5000128;28;25059;-71
2022/02/26 06:48:02;;;;;;;108.88;37.72;;;1.70;99.90;;;;;;4997952;28;25146;-73
2022/02/26 06:50:28;;;;;;;57.72;25.67;;;1.70;99.90;;;;;;5000856;28;25050;-72
2022/02/26 06:52:54;;;;;;;168.65;35.78;;;1.70;99.90;;;;;;4996836;28;25167;-73
2022/02/26 06:55:21;;;;;;;133.57;36.20;;;1.80;99.90;;;;;;4999016;28;25205;-74
2022/02/26 06:57:46;;;;;;;130.77;35.75;;;1.80;99.90;;;;;;5004012;28;25177;-74
2022/02/26 07:00:13;;;;;;;87.22;29.50;;;1.80;99.90;;;;;;5000724;28;25166;-74
2022/02/26 07:02:38;;;;;;;57.03;24.25;;;1.80;99.90;;;;;;5005664;28;25130;-72
2022/02/26 07:05:05;;;;;;;68.07;26.55;;;1.80;99.90;;;;;;4979804;28;25277;-73
2022/02/26 07:07:30;;;;;;;44.60;23.08;;;1.90;99.90;;;;;;5001977;28;25140;-72
2022/02/26 07:09:56;;;;;;;50.83;23.65;;;1.90;99.90;;;;;;4999787;28;25137;-72
2022/02/26 07:12:21;;;;;;;39.70;17.80;;;1.90;99.90;;;;;;4999329;28;25189;-73
2022/02/26 07:14:47;;;;;;;59.67;27.08;;;1.90;99.90;;;;;;4999377;28;25147;-74
2022/02/26 07:17:14;;;;;;;45.15;22.95;;;2.00;99.90;;;;;;5011845;28;25109;-72
2022/02/26 07:19:40;;;;;;;41.97;21.48;;;2.00;99.90;;;;;;4995370;28;25074;-72
2022/02/26 07:22:09;;;;;;;39.35;19.90;;;2.00;99.90;;;;;;5005372;28;25139;-73
2022/02/26 07:24:35;;;;;;;45.28;23.17;;;2.00;99.90;;;;;;5011241;28;25082;-73
2022/02/26 07:27:00;;;;;;;52.20;24.75;;;1.90;99.90;;;;;;5011297;28;25051;-71
2022/02/26 07:29:26;;;;;;;47.58;24.33;;;2.00;99.90;;;;;;5010115;28;25074;-75
2022/02/26 07:31:52;;;;;;;44.28;23.27;;;2.10;99.90;;;;;;5010840;28;25090;-73
2022/02/26 07:34:18;;;;;;;71.47;31.30;;;2.10;99.90;;;;;;4993227;28;25072;-71
2022/02/26 07:36:43;;;;;;;44.30;23.60;;;2.20;99.90;;;;;;5009210;28;25147;-72
2022/02/26 07:39:09;;;;;;;38.50;22.05;;;2.20;99.90;;;;;;5002146;28;25064;-71
2022/02/26 07:41:34;;;;;;;54.03;27.02;;;2.30;99.90;;;;;;4997632;28;25079;-73
2022/02/26 07:44:00;;;;;;;59.10;27.08;;;2.30;99.90;;;;;;4999611;28;25071;-73
2022/02/26 07:46:26;;;;;;;55.67;29.15;;;2.40;99.90;;;;;;4998876;28;25098;-73
2022/02/26 07:48:52;;;;;;;59.13;27.45;;;2.50;99.90;;;;;;5002500;28;25089;-73
2022/02/26 07:51:17;;;;;;;48.92;23.92;;;2.60;99.90;;;;;;5004527;28;25127;-71
2022/02/26 07:53:44;;;;;;;60.08;25.33;;;2.60;99.90;;;;;;5018083;28;25057;-75
2022/02/26 07:56:10;;;;;;;58.25;26.52;;;2.70;99.90;;;;;;5024482;28;25077;-74
2022/02/26 07:58:36;;;;;;;59.13;28.02;;;2.80;99.90;;;;;;5008624;28;25175;-73
2022/02/26 08:01:02;;;;;;;75.30;31.48;;;2.90;99.90;;;;;;4998387;28;25111;-73
2022/02/26 08:03:28;;;;;;;73.18;31.00;;;2.90;99.90;;;;;;4997083;28;25144;-73
2022/02/26 08:05:53;;;;;;;54.67;25.85;;;3.00;99.90;;;;;;5002639;28;25123;-74
2022/02/26 08:08:19;;;;;;;52.50;27.63;;;3.20;99.90;;;;;;5011899;28;25161;-73
2022/02/26 08:10:45;;;;;;;57.47;28.05;;;3.20;99.90;;;;;;5010396;28;25083;-74
2022/02/26 08:13:10;;;;;;;61.15;25.42;;;3.30;99.90;;;;;;5010814;28;25068;-74
2022/02/26 08:15:37;;;;;;;60.33;27.45;;;3.40;99.90;;;;;;5011306;28;25125;-73
2022/02/26 08:18:03;;;;;;;61.08;27.05;;;3.50;99.90;;;;;;4992594;28;25074;-74
2022/02/26 08:20:30;;;;;;;58.40;26.75;;;3.50;99.90;;;;;;5011954;28;25075;-76
2022/02/26 08:22:56;;;;;;;50.90;27.23;;;3.50;99.90;;;;;;5010121;28;25116;-74
2022/02/26 08:25:22;;;;;;;55.60;28.17;;;3.60;99.90;;;;;;5010774;28;25066;-73
2022/02/26 08:27:47;;;;;;;53.33;26.35;;;3.70;99.90;;;;;;5011078;28;25115;-75
2022/02/26 08:30:15;;;;;;;51.95;23.48;;;3.80;99.90;;;;;;5010585;28;25071;-74
2022/02/26 08:32:41;;;;;;;53.10;24.13;;;3.80;99.90;;;;;;5009435;28;25156;-76
2022/02/26 08:35:10;;;;;;;47.03;23.60;;;3.90;99.90;;;;;;5000303;28;25174;-73
2022/02/26 08:37:37;;;;;;;46.33;20.65;;;4.00;99.90;;;;;;4987957;28;25176;-75
2022/02/26 08:40:04;;;;;;;52.15;20.85;;;4.20;99.90;;;;;;4989770;28;25102;-75
2022/02/26 08:42:30;;;;;;;54.08;22.35;;;4.40;99.90;;;;;;5011610;28;25052;-75
2022/02/26 08:44:56;;;;;;;43.65;19.02;;;4.60;99.90;;;;;;5003745;28;25075;-74
2022/02/26 08:47:22;;;;;;;43.72;19.65;;;4.90;99.90;;;;;;5011842;28;25061;-73
2022/02/26 08:49:47;;;;;;;35.70;17.70;;;5.10;99.90;;;;;;5011102;28;25104;-73
2022/02/26 08:52:13;;;;;;;37.08;18.20;;;5.20;99.90;;;;;;5001153;28;25096;-72
2022/02/26 08:54:39;;;;;;;36.58;17.27;;;5.40;99.90;;;;;;5008058;28;25153;-72
2022/02/26 08:57:05;;;;;;;47.97;17.05;;;5.50;99.90;;;;;;4993011;28;25150;-71
2022/02/26 08:59:30;;;;;;;34.70;15.07;;;5.60;99.90;;;;;;4992791;28;25138;-73
2022/02/26 09:01:57;;;;;;;38.75;14.93;;;5.80;99.90;;;;;;4991567;28;25066;-70
2022/02/26 09:04:23;;;;;;;35.55;14.50;;;6.10;99.90;;;;;;4997637;28;25049;-74
2022/02/26 09:06:49;;;;;;;38.50;11.65;;;6.10;99.90;;;;;;4999913;28;25065;-72
2022/02/26 09:09:14;;;;;;;32.25;12.07;;;6.30;99.90;;;;;;5006029;28;25133;-73
2022/02/26 09:11:41;;;;;;;31.67;10.95;;;6.50;99.90;;;;;;5007524;28;25149;-74
2022/02/26 09:14:07;;;;;;;30.88;10.73;;;6.50;99.90;;;;;;5001036;28;25057;-71
2022/02/26 09:16:33;;;;;;;31.70;10.25;;;6.80;99.90;;;;;;4998292;28;25136;-71
2022/02/26 09:18:58;;;;;;;30.00;8.98;;;7.10;99.90;;;;;;5005656;28;25061;-72
2022/02/26 09:21:25;;;;;;;29.15;8.75;;;7.20;99.90;;;;;;5004363;28;25152;-71
2022/02/26 09:23:50;;;;;;;31.45;9.07;;;6.90;99.90;;;;;;5003524;28;25073;-71
2022/02/26 09:26:16;;;;;;;29.95;9.27;;;7.20;99.90;;;;;;5005523;28;25074;-71
2022/02/26 09:28:42;;;;;;;26.27;9.60;;;7.10;99.90;;;;;;5005295;28;25065;-72
2022/02/26 09:31:12;;;;;;;36.20;10.10;;;7.20;99.90;;;;;;5006794;28;25098;-72
2022/02/26 09:33:38;;;;;;;31.88;9.98;;;7.20;99.90;;;;;;5007910;28;25067;-72
2022/02/26 09:36:06;;;;;;;30.95;11.82;;;7.40;99.90;;;;;;5014613;28;25150;-72
2022/02/26 09:38:32;;;;;;;39.53;12.18;;;7.60;99.30;;;;;;5012248;28;25074;-73
2022/02/26 09:40:59;;;;;;;30.48;11.30;;;7.70;98.40;;;;;;5020770;28;25075;-73
2022/02/26 09:43:26;;;;;;;33.80;12.88;;;7.80;98.60;;;;;;5022088;28;25065;-75
2022/02/26 09:45:53;;;;;;;31.33;12.63;;;7.50;97.80;;;;;;5023273;28;25070;-72
2022/02/26 09:48:19;;;;;;;33.00;12.80;;;7.40;97.70;;;;;;5015028;28;25076;-72
2022/02/26 09:50:45;;;;;;;27.75;11.77;;;7.20;98.40;;;;;;5024028;28;25055;-72
2022/02/26 09:53:12;;;;;;;34.22;12.57;;;7.20;98.60;;;;;;5024235;28;25079;-74
2022/02/26 09:55:39;;;;;;;26.58;10.20;;;7.10;98.80;;;;;;5006630;28;25086;-72
2022/02/26 09:58:05;;;;;;;26.42;11.10;;;7.20;98.50;;;;;;5024628;28;25140;-73
2022/02/26 10:00:32;;;;;;;26.17;10.00;;;7.20;98.10;;;;;;5013993;28;25063;-72
2022/02/26 10:02:57;;;;;;;30.40;10.38;;;7.40;98.20;;;;;;5021840;28;25069;-74
2022/02/26 10:05:23;;;;;;;32.38;10.35;;;7.70;97.70;;;;;;5020138;28;25061;-75
2022/02/26 10:07:50;;;;;;;24.90;9.35;;;7.90;97.20;;;;;;5026434;28;25080;-75
2022/02/26 10:10:15;;;;;;;29.60;9.15;;;7.80;96.40;;;;;;5014368;28;25074;-75
2022/02/26 10:12:41;;;;;;;29.55;9.13;;;8.10;96.50;;;;;;5017103;28;25078;-74
2022/02/26 10:15:22;;;;;;;22.20;8.00;;;8.30;96.10;;;;;;5021558;28;25133;-78
2022/02/26 10:18:09;;;;;;;20.92;8.80;;;8.50;95.50;;;;;;5010310;28;25112;-74
2022/02/26 10:20:43;;;;;;;29.20;10.13;;;8.60;94.90;;;;;;5008947;28;25060;-76
2022/02/26 10:23:13;;;;;;;31.77;10.00;;;8.50;94.40;;;;;;5006864;28;25087;-75
2022/02/26 10:25:38;;;;;;;24.98;10.60;;;8.70;94.40;;;;;;4989152;28;25059;-74
2022/02/26 10:28:04;;;;;;;28.38;10.65;;;8.70;93.80;;;;;;5008963;28;25097;-71
2022/02/26 10:30:35;;;;;;;29.17;9.65;;;8.70;94.20;;;;;;5005535;28;25069;-73
2022/02/26 10:33:17;;;;;;;22.48;8.25;;;8.70;94.10;;;;;;5000587;28;25064;-72
2022/02/26 10:35:54;;;;;;;27.77;9.32;;;8.70;93.60;;;;;;4996699;28;25091;-73
2022/02/26 10:38:22;;;;;;;28.73;8.90;;;9.00;93.90;;;;;;4997091;28;25070;-74
2022/02/26 10:41:03;;;;;;;23.55;8.25;;;9.10;93.40;;;;;;4998478;28;25060;-74
2022/02/26 10:43:48;;;;;;;22.65;5.75;;;9.30;93.60;;;;;;4979545;28;25077;-74
2022/02/26 10:46:34;;;;;;;19.88;5.95;;;9.20;91.00;;;;;;4998376;28;25060;-73
2022/02/26 10:49:08;;;;;;;18.38;5.00;;;9.00;90.20;;;;;;4995020;28;25168;-72
2022/02/26 10:51:36;;;;;;;21.35;5.80;;;9.00;90.70;;;;;;4998816;28;25061;-73
2022/02/26 10:54:05;;;;;;;22.33;7.07;;;9.30;88.10;;;;;;4995212;28;25081;-71
2022/02/26 10:56:41;;;;;;;25.92;8.50;;;9.20;89.70;;;;;;5000497;28;25076;-71
2022/02/26 10:59:09;;;;;;;32.95;9.38;;;9.10;90.50;;;;;;4998179;28;25059;-74
2022/02/26 11:01:36;;;;;;;28.55;9.43;;;9.20;90.30;;;;;;5004118;28;25050;-74
2022/02/26 11:04:02;;;;;;;30.60;8.88;;;9.40;90.50;;;;;;5009294;28;25057;-72
2022/02/26 11:06:28;;;;;;;28.15;8.90;;;9.60;90.60;;;;;;5009025;28;25053;-72
2022/02/26 11:08:55;;;;;;;34.65;10.73;;;9.60;89.70;;;;;;5007916;28;25078;-72
2022/02/26 11:11:23;;;;;;;29.38;9.23;;;9.40;90.00;;;;;;5008888;28;25083;-72
2022/02/26 11:13:53;;;;;;;31.33;10.07;;;9.60;91.00;;;;;;4994993;28;25088;-72
2022/02/26 11:16:20;;;;;;;25.02;9.68;;;9.50;88.30;;;;;;4993522;28;25074;-72
2022/02/26 11:18:51;;;;;;;25.38;8.70;;;9.50;88.90;;;;;;4995698;28;25139;-75
2022/02/26 11:21:18;;;;;;;23.58;9.77;;;9.50;88.00;;;;;;4997419;28;25151;-72
2022/02/26 11:23:46;;;;;;;24.83;8.48;;;9.40;87.80;;;;;;4998704;28;25062;-74
2022/02/26 11:26:12;;;;;;;17.30;8.25;;;9.80;88.70;;;;;;5003002;28;25087;-73
2022/02/26 11:28:46;;;;;;;30.27;8.50;;;9.30;88.50;;;;;;4997783;28;25062;-74
2022/02/26 11:31:17;;;;;;;31.33;7.90;;;9.90;90.10;;;;;;5004829;28;25072;-76
2022/02/26 11:33:46;;;;;;;29.75;8.77;;;10.40;87.40;;;;;;5009991;28;25060;-72
2022/02/26 11:36:12;;;;;;;26.73;8.85;;;10.40;87.00;;;;;;5004836;28;25105;-74
2022/02/26 11:38:40;;;;;;;27.98;8.23;;;10.10;86.20;;;;;;5004632;28;25058;-72
2022/02/26 11:41:27;;;;;;;31.67;7.70;;;9.60;90.30;;;;;;5012740;28;25067;-73
2022/02/26 11:44:01;;;;;;;26.02;7.63;;;10.00;90.10;;;;;;5011284;28;25053;-73
2022/02/26 11:46:36;;;;;;;22.92;7.15;;;10.20;87.80;;;;;;5011707;28;25078;-73
2022/02/26 11:49:18;;;;;;;19.40;6.72;;;10.30;87.90;;;;;;5012142;28;25074;-75
2022/02/26 11:51:46;;;;;;;18.95;6.40;;;10.80;86.70;;;;;;4993617;28;25076;-73
2022/02/26 11:54:17;;;;;;;22.52;6.47;;;10.90;82.80;;;;;;4993344;28;25058;-75
2022/02/26 11:56:57;;;;;;;20.83;7.00;;;10.60;80.50;;;;;;5009977;28;25152;-74
2022/02/26 11:59:39;;;;;;;23.33;7.15;;;10.60;82.30;;;;;;5011281;28;25083;-72
2022/02/26 12:02:08;;;;;;;18.93;7.33;;;10.20;84.10;;;;;;5010241;28;25110;-76
2022/02/26 12:04:57;;;;;;;19.67;8.00;;;10.70;85.40;;;;;;5011121;28;25100;-74
2022/02/26 12:07:42;;;;;;;22.77;7.30;;;10.80;81.40;;;;;;5007864;28;25057;-73
2022/02/26 12:10:10;;;;;;;27.55;7.65;;;10.90;80.10;;;;;;5008857;28;25080;-74
2022/02/26 12:12:40;;;;;;;19.27;7.28;;;10.40;81.40;;;;;;5013956;28;25135;-75
2022/02/26 12:15:17;;;;;;;22.58;7.72;;;10.40;81.10;;;;;;5009596;28;25070;-73
2022/02/26 12:18:09;;;;;;;26.25;7.85;;;10.70;79.90;;;;;;5009814;28;25059;-71
2022/02/26 12:20:35;;;;;;;23.35;8.30;;;10.30;82.40;;;;;;5000977;28;25150;-75
2022/02/26 12:23:14;;;;;;;23.02;8.27;;;10.40;82.30;;;;;;5010571;28;25068;-74
2022/02/26 12:25:42;;;;;;;25.17;7.95;;;10.70;82.40;;;;;;5011959;28;25070;-74
2022/02/26 12:28:09;;;;;;;22.58;6.97;;;10.80;81.60;;;;;;5009621;28;25146;-73
2022/02/26 12:31:02;;;;;;;24.02;6.93;;;10.80;80.40;;;;;;4993248;28;25062;-74
2022/02/26 12:33:35;;;;;;;16.02;6.05;;;10.80;78.50;;;;;;5009736;28;25126;-75
2022/02/26 12:36:13;;;;;;;12.25;4.72;;;11.20;76.90;;;;;;5008922;28;25070;-74
2022/02/26 12:38:50;;;;;;;19.80;5.90;;;11.80;75.10;;;;;;5009854;28;25056;-74
2022/02/26 12:41:36;;;;;;;22.45;5.68;;;11.90;75.10;;;;;;5009088;28;25075;-74